createdAt,value
2017-09-17T10:50:56.156Z,694
2017-09-17T10:52:03.886Z,697
2017-09-17T10:53:11.374Z,696
2017-09-17T10:54:18.850Z,696
2017-09-17T10:55:26.328Z,696
2017-09-17T10:56:33.798Z,695
2017-09-17T10:57:41.195Z,695
2017-09-17T10:58:48.670Z,693
2017-09-17T10:59:56.151Z,691
2017-09-17T11:01:03.628Z,692
2017-09-17T11:02:10.771Z,693
2017-09-17T11:03:18.545Z,691
2017-09-17T11:04:25.655Z,690
2017-09-17T11:05:32.797Z,690
2017-09-17T11:06:39.970Z,690
2017-09-17T11:07:47.123Z,692
2017-09-17T11:08:54.693Z,695
2017-09-17T11:10:02.169Z,697
2017-09-17T11:11:09.664Z,695
2017-09-17T11:12:16.803Z,696
2017-09-17T11:13:24.300Z,696
2017-09-17T11:14:31.872Z,696
2017-09-17T11:15:39.349Z,696
2017-09-17T11:16:46.827Z,696
2017-09-17T11:17:53.967Z,695
2017-09-17T11:19:01.447Z,696
2017-09-17T11:20:09.298Z,697
2017-09-17T11:21:16.799Z,696
2017-09-17T11:22:23.955Z,695
2017-09-17T11:23:31.443Z,694
2017-09-17T11:24:38.927Z,692
2017-09-17T11:25:46.756Z,689
2017-09-17T11:26:54.227Z,690
2017-09-17T11:28:01.703Z,691
2017-09-17T11:29:09.181Z,692
2017-09-17T11:30:16.668Z,691
2017-09-17T11:31:24.151Z,694
2017-09-17T11:32:31.300Z,685
2017-09-17T11:33:39.075Z,679
2017-09-17T11:34:46.550Z,669
2017-09-17T11:35:54.034Z,666
2017-09-17T11:37:01.180Z,673
2017-09-17T11:38:08.318Z,679
2017-09-17T11:39:15.561Z,679
2017-09-17T11:40:23.039Z,681
2017-09-17T11:41:30.530Z,683
2017-09-17T11:42:38.004Z,685
2017-09-17T11:43:45.480Z,690
2017-09-17T11:44:53.060Z,690
2017-09-17T11:46:00.539Z,689
2017-09-17T11:47:08.015Z,689
2017-09-17T11:48:15.489Z,691
2017-09-17T11:49:22.634Z,691
2017-09-17T11:50:30.122Z,688
2017-09-17T11:51:37.596Z,691
2017-09-17T11:52:45.077Z,689
2017-09-17T11:53:52.550Z,687
2017-09-17T11:55:00.026Z,686
2017-09-17T11:56:07.603Z,689
2017-09-17T11:57:15.079Z,690
2017-09-17T11:58:22.216Z,689
2017-09-17T11:59:29.677Z,689
2017-09-17T12:00:37.160Z,689
2017-09-17T12:01:44.736Z,689
2017-09-17T12:02:52.209Z,687
2017-09-17T12:03:59.681Z,687
2017-09-17T12:05:07.154Z,680
2017-09-17T12:06:14.635Z,670
2017-09-17T12:07:22.214Z,669
2017-09-17T12:08:29.706Z,669
2017-09-17T12:09:37.174Z,669
2017-09-17T12:10:44.643Z,673
2017-09-17T12:11:51.436Z,668
2017-09-17T12:12:58.926Z,657
2017-09-17T12:14:06.406Z,654
2017-09-17T12:15:13.882Z,658
2017-09-17T12:16:21.364Z,667
2017-09-17T12:17:28.847Z,672
2017-09-17T12:18:36.326Z,669
2017-09-17T12:19:43.806Z,659
2017-09-17T12:20:50.952Z,663
2017-09-17T12:21:58.425Z,672
2017-09-17T12:23:05.907Z,676
2017-09-17T12:24:13.390Z,678
2017-09-17T12:25:20.967Z,679
2017-09-17T12:26:28.113Z,676
2017-09-17T12:27:35.590Z,674
2017-09-17T12:28:43.066Z,675
2017-09-17T12:29:50.540Z,674
2017-09-17T12:30:58.117Z,677
2017-09-17T12:32:05.593Z,670
2017-09-17T12:33:13.069Z,665
2017-09-17T12:34:20.553Z,660
2017-09-17T12:35:27.698Z,662
2017-09-17T12:36:35.275Z,664
2017-09-17T12:37:42.417Z,667
2017-09-17T12:38:49.899Z,661
2017-09-17T12:39:57.374Z,668
2017-09-17T12:41:04.852Z,669
2017-09-17T12:42:12.326Z,670
2017-09-17T12:43:19.804Z,661
2017-09-17T12:44:27.282Z,654
2017-09-17T12:45:34.104Z,654
2017-09-17T12:46:41.581Z,649
2017-09-17T12:47:48.726Z,649
2017-09-17T12:48:56.203Z,657
2017-09-17T12:50:03.344Z,667
2017-09-17T12:51:10.825Z,672
2017-09-17T12:52:18.660Z,677
2017-09-17T12:53:26.136Z,681
2017-09-17T12:54:33.619Z,682
2017-09-17T12:55:41.112Z,681
2017-09-17T12:56:48.254Z,666
2017-09-17T12:57:55.747Z,658
2017-09-17T12:59:03.231Z,652
2017-09-17T13:00:10.706Z,644
2017-09-17T13:01:18.193Z,641
2017-09-17T13:02:25.681Z,645
2017-09-17T13:03:33.261Z,653
2017-09-17T13:04:40.740Z,658
2017-09-17T13:05:48.221Z,657
2017-09-17T13:06:55.697Z,659
2017-09-17T13:08:03.178Z,674
2017-09-17T13:09:10.660Z,683
2017-09-17T13:10:18.142Z,687
2017-09-17T13:11:25.280Z,687
2017-09-17T13:12:32.797Z,675
2017-09-17T13:13:40.628Z,665
2017-09-17T13:14:48.103Z,659
2017-09-17T13:15:55.585Z,669
2017-09-17T13:17:03.061Z,682
2017-09-17T13:18:10.548Z,675
2017-09-17T13:19:18.375Z,670
2017-09-17T13:20:25.856Z,676
2017-09-17T13:21:32.672Z,685
2017-09-17T13:22:39.818Z,691
2017-09-17T13:23:47.292Z,693
2017-09-17T13:24:55.134Z,696
2017-09-17T13:26:02.614Z,696
2017-09-17T13:27:09.767Z,696
2017-09-17T13:28:17.249Z,695
2017-09-17T13:29:24.725Z,695
2017-09-17T13:30:32.506Z,694
2017-09-17T13:31:39.980Z,695
2017-09-17T13:32:47.469Z,694
2017-09-17T13:33:54.945Z,694
2017-09-17T13:35:02.473Z,695
2017-09-17T13:36:10.246Z,694
2017-09-17T13:37:17.733Z,693
2017-09-17T13:38:25.216Z,694
2017-09-17T13:39:32.697Z,694
2017-09-17T13:40:40.175Z,694
2017-09-17T13:41:47.655Z,694
2017-09-17T13:42:55.156Z,695
2017-09-17T13:44:02.643Z,694
2017-09-17T13:45:10.123Z,693
2017-09-17T13:46:17.823Z,694
2017-09-17T13:47:24.639Z,694
2017-09-17T13:48:32.215Z,695
2017-09-17T13:49:39.698Z,695
2017-09-17T13:50:47.169Z,695
2017-09-17T13:51:54.645Z,693
2017-09-17T13:53:01.793Z,693
2017-09-17T13:54:09.246Z,694
2017-09-17T13:55:16.727Z,694
2017-09-17T13:56:23.877Z,694
2017-09-17T13:57:31.374Z,694
2017-09-17T13:58:38.849Z,693
2017-09-17T13:59:46.626Z,694
2017-09-17T14:00:54.104Z,693
2017-09-17T14:02:01.583Z,693
2017-09-17T14:03:09.060Z,692
2017-09-17T14:04:16.535Z,691
2017-09-17T14:05:24.267Z,691
2017-09-17T14:06:31.741Z,690
2017-09-17T14:07:39.217Z,691
2017-09-17T14:08:46.699Z,691
2017-09-17T14:09:54.174Z,691
2017-09-17T14:11:01.652Z,691
2017-09-17T14:12:09.131Z,692
2017-09-17T14:13:16.607Z,692
2017-09-17T14:14:24.081Z,693
2017-09-17T14:15:31.557Z,693
2017-09-17T14:16:39.337Z,692
2017-09-17T14:17:46.815Z,692
2017-09-17T14:18:54.286Z,693
2017-09-17T14:20:01.763Z,691
2017-09-17T14:21:09.244Z,691
2017-09-17T14:22:16.971Z,691
2017-09-17T14:23:24.130Z,692
2017-09-17T14:24:31.608Z,691
2017-09-17T14:25:38.752Z,692
2017-09-17T14:26:46.907Z,691
2017-09-17T14:27:54.389Z,691
2017-09-17T14:29:01.866Z,690
2017-09-17T14:30:09.343Z,689
2017-09-17T14:31:16.826Z,690
2017-09-17T14:32:23.969Z,690
2017-09-17T14:33:31.745Z,689
2017-09-17T14:34:39.222Z,689
2017-09-17T14:35:46.375Z,689
2017-09-17T14:36:53.850Z,690
2017-09-17T14:38:01.330Z,690
2017-09-17T14:39:08.906Z,690
2017-09-17T14:40:16.387Z,691
2017-09-17T14:41:23.528Z,692
2017-09-17T14:42:31.001Z,693
2017-09-17T14:43:38.478Z,692
2017-09-17T14:44:46.057Z,693
2017-09-17T14:45:53.527Z,693
2017-09-17T14:47:00.669Z,694
2017-09-17T14:48:08.153Z,693
2017-09-17T14:49:15.631Z,693
2017-09-17T14:50:23.107Z,693
2017-09-17T14:51:30.611Z,692
2017-09-17T14:52:37.755Z,693
2017-09-17T14:53:45.232Z,693
2017-09-17T14:54:52.147Z,693
2017-09-17T14:55:59.623Z,692
2017-09-17T14:57:07.096Z,692
2017-09-17T14:58:14.575Z,693
2017-09-17T14:59:21.382Z,692
2017-09-17T15:00:28.627Z,692
2017-09-17T15:01:36.103Z,692
2017-09-17T15:02:43.578Z,692
2017-09-17T15:03:51.057Z,691
2017-09-17T15:04:58.200Z,691
2017-09-17T15:06:05.771Z,691
2017-09-17T15:07:13.389Z,689
2017-09-17T15:08:20.942Z,687
2017-09-17T15:09:28.417Z,687
2017-09-17T15:10:35.895Z,683
2017-09-17T15:11:43.040Z,682
2017-09-17T15:12:50.513Z,685
2017-09-17T15:13:57.990Z,687
2017-09-17T15:15:05.464Z,688
2017-09-17T15:16:12.937Z,688
2017-09-17T15:17:20.711Z,688
2017-09-17T15:18:28.189Z,687
2017-09-17T15:19:35.665Z,687
2017-09-17T15:20:43.141Z,687
2017-09-17T15:21:50.616Z,687
2017-09-17T15:22:58.396Z,686
2017-09-17T15:24:05.868Z,684
2017-09-17T15:25:13.347Z,670
2017-09-17T15:26:20.821Z,658
2017-09-17T15:27:28.300Z,658
2017-09-17T15:28:35.737Z,663
2017-09-17T15:29:43.219Z,670
2017-09-17T15:30:50.694Z,675
2017-09-17T15:31:58.169Z,678
2017-09-17T15:33:05.313Z,679
2017-09-17T15:34:12.797Z,681
2017-09-17T15:35:19.937Z,682
2017-09-17T15:36:27.088Z,684
2017-09-17T15:37:34.566Z,685
2017-09-17T15:38:42.040Z,685
2017-09-17T15:39:49.546Z,684
2017-09-17T15:40:57.024Z,685
2017-09-17T15:42:04.500Z,686
2017-09-17T15:43:11.976Z,687
2017-09-17T15:44:19.117Z,686
2017-09-17T15:45:26.897Z,686
2017-09-17T15:46:34.378Z,685
2017-09-17T15:47:41.851Z,684
2017-09-17T15:48:49.326Z,684
2017-09-17T15:49:56.801Z,685
2017-09-17T15:51:04.280Z,686
2017-09-17T15:52:11.753Z,687
2017-09-17T15:53:19.241Z,686
2017-09-17T15:54:26.712Z,679
2017-09-17T15:55:34.076Z,672
2017-09-17T15:56:41.857Z,667
2017-09-17T15:57:48.995Z,662
2017-09-17T15:58:56.470Z,659
2017-09-17T16:00:18.201Z,656
2017-09-17T16:01:25.680Z,655
2017-09-17T16:02:33.459Z,658
2017-09-17T16:03:40.936Z,664
2017-09-17T16:04:48.413Z,663
2017-09-17T16:05:55.556Z,663
2017-09-17T16:07:03.027Z,666
2017-09-17T16:08:10.509Z,667
2017-09-17T16:09:17.986Z,666
2017-09-17T16:10:25.461Z,667
2017-09-17T16:11:32.271Z,671
2017-09-17T16:12:39.748Z,672
2017-09-17T16:13:46.868Z,667
2017-09-17T16:14:54.346Z,662
2017-09-17T16:16:01.824Z,660
2017-09-17T16:17:09.303Z,658
2017-09-17T16:18:16.777Z,657
2017-09-17T16:19:24.551Z,657
2017-09-17T16:20:32.035Z,657
2017-09-17T16:21:39.510Z,660
2017-09-17T16:22:47.005Z,658
2017-09-17T16:23:54.144Z,659
2017-09-17T16:25:01.589Z,663
2017-09-17T16:26:09.070Z,666
2017-09-17T16:27:16.551Z,667
2017-09-17T16:28:24.024Z,668
2017-09-17T16:29:31.164Z,669
2017-09-17T16:30:38.943Z,669
2017-09-17T16:31:46.421Z,671
2017-09-17T16:32:53.900Z,671
2017-09-17T16:34:01.379Z,671
2017-09-17T16:35:08.518Z,671
2017-09-17T16:36:16.296Z,673
2017-09-17T16:37:23.774Z,675
2017-09-17T16:38:31.250Z,679
2017-09-17T16:39:38.728Z,680
2017-09-17T16:40:46.203Z,681
2017-09-17T16:41:53.981Z,684
2017-09-17T16:43:01.456Z,686
2017-09-17T16:44:08.618Z,688
2017-09-17T16:45:16.092Z,689
2017-09-17T16:46:23.571Z,691
2017-09-17T16:47:30.712Z,692
2017-09-17T16:48:38.189Z,693
2017-09-17T16:49:45.667Z,694
2017-09-17T16:50:53.143Z,694
2017-09-17T16:52:00.594Z,694
2017-09-17T16:53:08.073Z,695
2017-09-17T16:54:15.562Z,696
2017-09-17T16:55:22.366Z,696
2017-09-17T16:56:29.841Z,696
2017-09-17T16:57:37.616Z,697
2017-09-17T16:58:44.757Z,697
2017-09-17T16:59:51.534Z,697
2017-09-17T17:00:59.006Z,698
2017-09-17T17:02:06.481Z,698
2017-09-17T17:03:14.253Z,699
2017-09-17T17:04:21.726Z,699
2017-09-17T17:05:29.207Z,700
2017-09-17T17:06:36.687Z,700
2017-09-17T17:07:43.831Z,701
2017-09-17T17:08:51.626Z,702
2017-09-17T17:09:59.104Z,702
2017-09-17T17:11:06.247Z,703
2017-09-17T17:12:13.399Z,703
2017-09-17T17:13:20.872Z,703
2017-09-17T17:14:28.319Z,703
2017-09-17T17:15:35.458Z,703
2017-09-17T17:16:42.605Z,704
2017-09-17T17:17:49.424Z,704
2017-09-17T17:18:56.899Z,705
2017-09-17T17:20:04.377Z,705
2017-09-17T17:21:11.527Z,705
2017-09-17T17:22:18.332Z,706
2017-09-17T17:23:25.825Z,706
2017-09-17T17:24:32.637Z,706
2017-09-17T17:25:40.109Z,707
2017-09-17T17:26:47.951Z,707
2017-09-17T17:27:55.092Z,707
2017-09-17T17:29:02.237Z,708
2017-09-17T17:30:09.379Z,708
2017-09-17T17:31:16.516Z,708
2017-09-17T17:32:24.338Z,709
2017-09-17T17:33:31.814Z,709
2017-09-17T17:34:39.290Z,709
2017-09-17T17:35:46.107Z,710
2017-09-17T17:36:53.278Z,710
2017-09-17T17:38:00.753Z,710
2017-09-17T17:39:08.226Z,710
2017-09-17T17:40:15.373Z,710
2017-09-17T17:41:22.180Z,711
2017-09-17T17:42:29.653Z,711
2017-09-17T17:43:37.140Z,711
2017-09-17T17:44:44.617Z,711
2017-09-17T17:45:51.761Z,712
2017-09-17T17:46:59.237Z,712
2017-09-17T17:48:06.376Z,713
2017-09-17T17:49:14.146Z,713
2017-09-17T17:50:21.626Z,713
2017-09-17T17:51:28.766Z,714
2017-09-17T17:52:36.236Z,714
2017-09-17T17:53:43.380Z,714
2017-09-17T17:54:51.151Z,715
2017-09-17T17:55:58.296Z,715
2017-09-17T17:57:05.443Z,716
2017-09-17T17:58:12.917Z,716
2017-09-17T17:59:20.390Z,716
2017-09-17T18:00:27.530Z,716
2017-09-17T18:01:34.664Z,716
2017-09-17T18:02:42.149Z,717
2017-09-17T18:03:49.622Z,716
2017-09-17T18:04:57.108Z,716
2017-09-17T18:06:04.879Z,717
2017-09-17T18:07:12.354Z,716
2017-09-17T18:08:19.495Z,716
2017-09-17T18:09:26.967Z,717
2017-09-17T18:10:33.777Z,717
2017-09-17T18:11:40.597Z,717
2017-09-17T18:12:48.077Z,717
2017-09-17T18:13:54.882Z,718
2017-09-17T18:15:02.363Z,718
2017-09-17T18:16:09.835Z,718
2017-09-17T18:17:17.324Z,718
2017-09-17T18:18:24.797Z,718
2017-09-17T18:19:31.605Z,718
2017-09-17T18:20:39.089Z,719
2017-09-17T18:21:46.560Z,719
2017-09-17T18:22:53.703Z,719
2017-09-17T18:24:01.180Z,719
2017-09-17T18:25:08.322Z,719
2017-09-17T18:26:15.139Z,719
2017-09-17T18:27:22.298Z,719
2017-09-17T18:28:29.768Z,720
2017-09-17T18:29:36.918Z,720
2017-09-17T18:30:44.393Z,720
2017-09-17T18:31:51.531Z,719
2017-09-17T18:32:59.351Z,720
2017-09-17T18:34:05.830Z,719
2017-09-17T18:35:12.637Z,720
2017-09-17T18:36:19.777Z,719
2017-09-17T18:37:26.587Z,719
2017-09-17T18:38:34.079Z,720
2017-09-17T18:39:41.548Z,720
2017-09-17T18:40:49.018Z,721
2017-09-17T18:41:56.491Z,720
2017-09-17T18:43:03.627Z,721
2017-09-17T18:44:25.698Z,721
2017-09-17T18:45:33.167Z,722
2017-09-17T18:46:40.638Z,720
2017-09-17T18:47:47.782Z,721
2017-09-17T18:48:55.253Z,721
2017-09-17T18:50:02.391Z,721
2017-09-17T18:51:09.545Z,721
2017-09-17T18:52:17.024Z,721
2017-09-17T18:53:24.497Z,721
2017-09-17T18:54:31.981Z,722
2017-09-17T18:55:38.782Z,722
2017-09-17T18:56:45.918Z,722
2017-09-17T18:57:53.390Z,722
2017-09-17T18:58:59.873Z,722
2017-09-17T19:00:07.693Z,722
2017-09-17T19:01:15.166Z,723
2017-09-17T19:02:22.637Z,723
2017-09-17T19:03:30.123Z,723
2017-09-17T19:04:37.609Z,722
2017-09-17T19:05:45.100Z,723
2017-09-17T19:06:52.240Z,722
2017-09-17T19:07:59.391Z,722
2017-09-17T19:09:06.526Z,722
2017-09-17T19:10:13.669Z,722
2017-09-17T19:11:20.474Z,722
2017-09-17T19:12:27.616Z,722
2017-09-17T19:13:35.096Z,722
2017-09-17T19:14:42.235Z,722
2017-09-17T19:15:49.714Z,722
2017-09-17T19:16:56.853Z,722
2017-09-17T19:18:04.331Z,721
2017-09-17T19:19:11.799Z,722
2017-09-17T19:20:18.938Z,721
2017-09-17T19:21:26.107Z,721
2017-09-17T19:22:33.602Z,722
2017-09-17T19:23:40.748Z,721
2017-09-17T19:24:48.224Z,721
2017-09-17T19:25:55.372Z,721
2017-09-17T19:27:02.516Z,721
2017-09-17T19:28:09.996Z,720
2017-09-17T19:29:17.497Z,721
2017-09-17T19:30:24.321Z,721
2017-09-17T19:31:31.462Z,721
2017-09-17T19:32:38.956Z,721
2017-09-17T19:33:46.450Z,721
2017-09-17T19:34:53.931Z,721
2017-09-17T19:36:01.400Z,720
2017-09-17T19:37:08.873Z,720
2017-09-17T19:38:16.345Z,720
2017-09-17T19:39:24.177Z,720
2017-09-17T19:40:31.679Z,720
2017-09-17T19:41:39.194Z,720
2017-09-17T19:42:46.713Z,721
2017-09-17T19:43:54.189Z,721
2017-09-17T19:45:02.122Z,721
2017-09-17T19:46:09.598Z,721
2017-09-17T19:47:17.065Z,721
2017-09-17T19:48:24.583Z,721
2017-09-17T19:49:32.058Z,721
2017-09-17T19:50:39.557Z,722
2017-09-17T19:51:47.033Z,721
2017-09-17T19:52:54.513Z,721
2017-09-17T19:54:01.994Z,721
2017-09-17T19:55:09.470Z,721
2017-09-17T19:56:16.958Z,722
2017-09-17T19:57:24.428Z,722
2017-09-17T19:58:31.904Z,722
2017-09-17T19:59:39.377Z,722
2017-09-17T20:00:47.158Z,722
2017-09-17T20:01:54.647Z,722
2017-09-17T20:03:02.128Z,722
2017-09-17T20:04:09.262Z,722
2017-09-17T20:05:16.734Z,722
2017-09-17T20:06:25.951Z,721
2017-09-17T20:07:33.420Z,722
2017-09-17T20:08:40.248Z,722
2017-09-17T20:09:47.722Z,722
2017-09-17T20:10:55.206Z,722
2017-09-17T20:12:02.986Z,722
2017-09-17T20:13:10.455Z,722
2017-09-17T20:14:17.924Z,722
2017-09-17T20:15:25.399Z,722
2017-09-17T20:16:32.866Z,722
2017-09-17T20:17:40.351Z,722
2017-09-17T20:18:47.824Z,723
2017-09-17T20:19:55.304Z,723
2017-09-17T20:21:02.769Z,722
2017-09-17T20:22:09.910Z,723
2017-09-17T20:23:17.704Z,723
2017-09-17T20:24:25.173Z,723
2017-09-17T20:25:32.310Z,723
2017-09-17T20:26:39.784Z,723
2017-09-17T20:27:46.922Z,723
2017-09-17T20:28:54.687Z,723
2017-09-17T20:30:01.821Z,723
2017-09-17T20:31:09.288Z,723
2017-09-17T20:32:16.759Z,724
2017-09-17T20:33:24.226Z,724
2017-09-17T20:34:31.702Z,724
2017-09-17T20:35:39.183Z,723
2017-09-17T20:36:46.656Z,723
2017-09-17T20:37:54.128Z,724
2017-09-17T20:39:01.264Z,723
2017-09-17T20:40:08.708Z,723
2017-09-17T20:41:16.171Z,723
2017-09-17T20:42:23.647Z,723
2017-09-17T20:43:31.115Z,723
2017-09-17T20:44:38.585Z,723
2017-09-17T20:45:46.352Z,723
2017-09-17T20:46:53.823Z,722
2017-09-17T20:48:01.295Z,722
2017-09-17T20:49:08.435Z,723
2017-09-17T20:50:15.908Z,724
2017-09-17T20:51:23.372Z,724
2017-09-17T20:52:30.845Z,724
2017-09-17T20:53:38.317Z,723
2017-09-17T20:54:45.788Z,724
2017-09-17T20:55:52.937Z,724
2017-09-17T20:57:00.705Z,724
2017-09-17T20:58:07.838Z,724
2017-09-17T20:59:15.306Z,724
2017-09-17T21:00:22.769Z,725
2017-09-17T21:01:30.247Z,725
2017-09-17T21:02:38.018Z,725
2017-09-17T21:03:45.161Z,724
2017-09-17T21:04:52.301Z,724
2017-09-17T21:05:59.771Z,723
2017-09-17T21:07:07.244Z,724
2017-09-17T21:08:14.707Z,723
2017-09-17T21:09:22.177Z,723
2017-09-17T21:10:29.323Z,723
2017-09-17T21:11:36.788Z,722
2017-09-17T21:12:44.257Z,722
2017-09-17T21:13:52.078Z,722
2017-09-17T21:14:59.563Z,723
2017-09-17T21:16:07.036Z,723
2017-09-17T21:17:14.177Z,723
2017-09-17T21:18:21.649Z,722
2017-09-17T21:19:29.413Z,722
2017-09-17T21:20:36.550Z,722
2017-09-17T21:21:44.028Z,722
2017-09-17T21:22:51.499Z,723
2017-09-17T21:23:58.969Z,723
2017-09-17T21:25:06.741Z,722
2017-09-17T21:26:14.209Z,722
2017-09-17T21:27:21.683Z,722
2017-09-17T21:28:28.814Z,722
2017-09-17T21:29:36.285Z,722
2017-09-17T21:30:43.423Z,722
2017-09-17T21:31:50.894Z,722
2017-09-17T21:32:58.360Z,722
2017-09-17T21:34:05.827Z,721
2017-09-17T21:35:13.593Z,722
2017-09-17T21:36:21.064Z,722
2017-09-17T21:37:28.536Z,722
2017-09-17T21:38:36.006Z,722
2017-09-17T21:39:43.137Z,722
2017-09-17T21:40:50.903Z,722
2017-09-17T21:41:58.377Z,723
2017-09-17T21:43:05.850Z,722
2017-09-17T21:44:12.986Z,722
2017-09-17T21:45:20.459Z,721
2017-09-17T21:46:28.232Z,721
2017-09-17T21:47:35.714Z,721
2017-09-17T21:48:43.187Z,721
2017-09-17T21:49:50.650Z,721
2017-09-17T21:50:58.122Z,722
2017-09-17T21:52:05.891Z,721
2017-09-17T21:53:13.026Z,721
2017-09-17T21:54:20.173Z,721
2017-09-17T21:55:27.309Z,722
2017-09-17T21:56:34.782Z,721
2017-09-17T21:57:42.547Z,721
2017-09-17T21:58:50.018Z,722
2017-09-17T21:59:57.151Z,723
2017-09-17T22:01:04.291Z,723
2017-09-17T22:02:26.009Z,723
2017-09-17T22:03:33.440Z,722
2017-09-17T22:04:40.908Z,722
2017-09-17T22:05:48.390Z,721
2017-09-17T22:06:55.859Z,720
2017-09-17T22:08:03.324Z,719
2017-09-17T22:09:11.093Z,720
2017-09-17T22:10:18.229Z,719
2017-09-17T22:11:25.697Z,718
2017-09-17T22:12:33.178Z,718
2017-09-17T22:13:40.643Z,718
2017-09-17T22:14:48.409Z,717
2017-09-17T22:15:55.879Z,716
2017-09-17T22:17:03.343Z,715
2017-09-17T22:18:10.476Z,714
2017-09-17T22:19:17.948Z,712
2017-09-17T22:20:25.717Z,711
2017-09-17T22:21:32.847Z,712
2017-09-17T22:22:40.319Z,711
2017-09-17T22:23:47.785Z,711
2017-09-17T22:24:54.922Z,711
2017-09-17T22:26:02.358Z,711
2017-09-17T22:27:09.820Z,711
2017-09-17T22:28:31.542Z,711
2017-09-17T22:29:39.012Z,711
2017-09-17T22:30:46.478Z,712
